NCAR-RAP Real-Time Weather Data

Output produced by METARs form (08 May 2021  01:42 UTC)
found at http://weather.rap.ucar.edu/surface/
 
KFUL 080053Z 20007KT 10SM CLR 21/13 A2992 RMK AO2 SLP130 T02060133
KFUL 072353Z 18008KT 10SM CLR 21/13 A2993 RMK AO2 SLP135 T02110128 10239 20189 56012
KFUL 072253Z 22006KT 10SM CLR 22/13 A2993 RMK AO2 SLP135 T02220128
KFUL 072153Z VRB05KT 10SM CLR 23/13 A2995 RMK AO2 SLP141 T02330133
KFUL 072053Z 21008KT 170V240 10SM CLR 23/13 A2997 RMK AO2 SLP147 T02330133 58016
KFUL 071953Z VRB04KT 10SM FEW034 22/12 A3000 RMK AO2 SLP157 T02220122
KFUL 071929Z VRB05KT 10SM SCT030 22/13 A3001 RMK AO2 T02220128
KFUL 071853Z 20005KT 10SM OVC029 21/13 A3002 RMK AO2 SLP164 T02110128
KFUL 071753Z 15003KT 10SM OVC025 19/12 A3002 RMK AO2 SLP164 T01890122 10189 20167 58001
KFUL 071653Z 00000KT 10SM OVC024 18/12 A3002 RMK AO2 SLP165 T01780122
KFUL 071553Z 17005KT 10SM OVC024 18/12 A3002 RMK AO2 SLP165 T01780122
KFUL 071453Z 19004KT 10SM OVC022 17/12 A3002 RMK AO2 SLP165 T01720122 53010
KFUL 071353Z 18005KT 10SM OVC022 17/12 A3000 RMK AO2 SLP157 T01670122
KFUL 071253Z AUTO 19004KT 10SM OVC025 17/13 A2999 RMK AO2 SLP155 T01670128